sensor_id;sensor_type;location;lat;lon;timestamp;pressure;altitude;pressure_sealevel;temperature;humidity
32251;BME280;41295;48.518;9.206;2022-11-20T00:00:26;96684.66;;;7.17;69.61
32251;BME280;41295;48.518;9.206;2022-11-20T00:02:28;96686.00;;;7.29;69.17
32251;BME280;41295;48.518;9.206;2022-11-20T00:04:31;96678.50;;;7.21;69.46
32251;BME280;41295;48.518;9.206;2022-11-20T00:06:33;96680.97;;;7.25;69.00
32251;BME280;41295;48.518;9.206;2022-11-20T00:08:37;96683.69;;;7.21;69.26
32251;BME280;41295;48.518;9.206;2022-11-20T00:10:40;96685.66;;;7.13;69.35
32251;BME280;41295;48.518;9.206;2022-11-20T00:12:44;96686.72;;;7.07;70.02
32251;BME280;41295;48.518;9.206;2022-11-20T00:14:46;96685.88;;;7.07;70.22
32251;BME280;41295;48.518;9.206;2022-11-20T00:16:49;96682.53;;;7.03;70.09
32251;BME280;41295;48.518;9.206;2022-11-20T00:18:52;96689.47;;;7.03;69.99
32251;BME280;41295;48.518;9.206;2022-11-20T00:21:00;96687.88;;;6.98;70.12
32251;BME280;41295;48.518;9.206;2022-11-20T00:23:05;96686.28;;;6.94;70.37
32251;BME280;41295;48.518;9.206;2022-11-20T00:25:08;96689.84;;;6.90;70.40
32251;BME280;41295;48.518;9.206;2022-11-20T00:27:11;96690.06;;;6.84;70.55
32251;BME280;41295;48.518;9.206;2022-11-20T00:29:15;96684.88;;;6.84;70.19
32251;BME280;41295;48.518;9.206;2022-11-20T00:31:18;96688.50;;;6.78;70.66
32251;BME280;41295;48.518;9.206;2022-11-20T00:33:20;96688.56;;;6.77;70.65
32251;BME280;41295;48.518;9.206;2022-11-20T00:35:23;96686.91;;;6.74;70.94
32251;BME280;41295;48.518;9.206;2022-11-20T00:37:26;96683.50;;;6.73;70.51
32251;BME280;41295;48.518;9.206;2022-11-20T00:39:28;96692.13;;;6.72;71.13
32251;BME280;41295;48.518;9.206;2022-11-20T00:41:31;96691.25;;;6.73;71.10
32251;BME280;41295;48.518;9.206;2022-11-20T00:43:34;96695.44;;;6.78;71.21
32251;BME280;41295;48.518;9.206;2022-11-20T00:45:38;96698.94;;;6.77;71.00
32251;BME280;41295;48.518;9.206;2022-11-20T00:47:41;96688.34;;;6.83;70.34
32251;BME280;41295;48.518;9.206;2022-11-20T00:49:44;96693.53;;;6.83;70.63
32251;BME280;41295;48.518;9.206;2022-11-20T00:51:46;96693.41;;;6.88;70.33
32251;BME280;41295;48.518;9.206;2022-11-20T00:53:49;96698.88;;;6.78;70.67
32251;BME280;41295;48.518;9.206;2022-11-20T00:55:53;96700.66;;;6.76;70.79
32251;BME280;41295;48.518;9.206;2022-11-20T00:57:56;96701.66;;;6.72;71.09
32251;BME280;41295;48.518;9.206;2022-11-20T01:00:06;96702.59;;;6.69;70.87
32251;BME280;41295;48.518;9.206;2022-11-20T01:02:10;96715.66;;;6.66;71.06
32251;BME280;41295;48.518;9.206;2022-11-20T01:04:14;96715.66;;;6.66;71.24
32251;BME280;41295;48.518;9.206;2022-11-20T01:06:19;96709.69;;;6.64;71.34
32251;BME280;41295;48.518;9.206;2022-11-20T01:08:22;96711.31;;;6.67;71.26
32251;BME280;41295;48.518;9.206;2022-11-20T01:10:25;96720.91;;;6.63;71.03
32251;BME280;41295;48.518;9.206;2022-11-20T01:12:28;96714.09;;;6.60;71.00
32251;BME280;41295;48.518;9.206;2022-11-20T01:14:30;96718.53;;;6.57;70.98
32251;BME280;41295;48.518;9.206;2022-11-20T01:16:35;96719.41;;;6.56;71.03
32251;BME280;41295;48.518;9.206;2022-11-20T01:18:41;96719.41;;;6.56;71.05
32251;BME280;41295;48.518;9.206;2022-11-20T01:20:44;96716.09;;;6.52;70.96
32251;BME280;41295;48.518;9.206;2022-11-20T01:22:46;96720.41;;;6.52;70.95
32251;BME280;41295;48.518;9.206;2022-11-20T01:24:49;96723.19;;;6.45;71.10
32251;BME280;41295;48.518;9.206;2022-11-20T01:26:52;96723.28;;;6.42;70.97
32251;BME280;41295;48.518;9.206;2022-11-20T01:28:55;96719.97;;;6.37;70.98
32251;BME280;41295;48.518;9.206;2022-11-20T01:30:59;96726.19;;;6.31;70.99
32251;BME280;41295;48.518;9.206;2022-11-20T01:33:02;96729.72;;;6.29;71.07
32251;BME280;41295;48.518;9.206;2022-11-20T01:35:06;96729.00;;;6.23;71.18
32251;BME280;41295;48.518;9.206;2022-11-20T01:37:10;96729.94;;;6.21;71.42
32251;BME280;41295;48.518;9.206;2022-11-20T01:39:15;96729.13;;;6.19;71.65
32251;BME280;41295;48.518;9.206;2022-11-20T01:41:19;96725.78;;;6.15;71.46
32251;BME280;41295;48.518;9.206;2022-11-20T01:43:35;96723.19;;;6.15;71.62
32251;BME280;41295;48.518;9.206;2022-11-20T01:45:53;96724.13;;;6.12;71.35
32251;BME280;41295;48.518;9.206;2022-11-20T01:47:58;96721.63;;;6.09;71.49
32251;BME280;41295;48.518;9.206;2022-11-20T01:50:06;96720.84;;;6.06;71.70
32251;BME280;41295;48.518;9.206;2022-11-20T01:52:17;96725.16;;;6.07;71.80
32251;BME280;41295;48.518;9.206;2022-11-20T01:54:24;96719.88;;;6.10;71.92
32251;BME280;41295;48.518;9.206;2022-11-20T01:56:28;96719.97;;;6.07;71.86
32251;BME280;41295;48.518;9.206;2022-11-20T01:58:35;96711.34;;;6.06;71.67
32251;BME280;41295;48.518;9.206;2022-11-20T02:00:42;96723.59;;;5.99;71.57
32251;BME280;41295;48.518;9.206;2022-11-20T02:02:47;96722.75;;;5.99;71.66
32251;BME280;41295;48.518;9.206;2022-11-20T02:04:54;96727.16;;;5.95;71.64
32251;BME280;41295;48.518;9.206;2022-11-20T02:07:01;96729.94;;;5.89;72.20
32251;BME280;41295;48.518;9.206;2022-11-20T02:09:04;96730.69;;;5.93;72.11
32251;BME280;41295;48.518;9.206;2022-11-20T02:11:07;96729.03;;;5.90;71.94
32251;BME280;41295;48.518;9.206;2022-11-20T02:13:10;96729.16;;;5.85;71.93
32251;BME280;41295;48.518;9.206;2022-11-20T02:15:32;96731.03;;;5.80;71.80
32251;BME280;41295;48.518;9.206;2022-11-20T02:17:35;96730.25;;;5.76;71.72
32251;BME280;41295;48.518;9.206;2022-11-20T02:19:38;96726.03;;;5.72;72.00
32251;BME280;41295;48.518;9.206;2022-11-20T02:21:47;96724.34;;;5.71;72.14
32251;BME280;41295;48.518;9.206;2022-11-20T02:24:00;96722.59;;;5.73;72.19
32251;BME280;41295;48.518;9.206;2022-11-20T02:26:06;96726.00;;;5.74;72.13
32251;BME280;41295;48.518;9.206;2022-11-20T02:28:10;96730.13;;;5.81;71.87
32251;BME280;41295;48.518;9.206;2022-11-20T02:30:12;96726.53;;;5.87;72.16
32251;BME280;41295;48.518;9.206;2022-11-20T02:32:19;96724.03;;;5.84;72.11
32251;BME280;41295;48.518;9.206;2022-11-20T02:34:21;96728.09;;;5.93;72.21
32251;BME280;41295;48.518;9.206;2022-11-20T02:36:26;96721.94;;;5.97;72.32
32251;BME280;41295;48.518;9.206;2022-11-20T02:38:30;96723.69;;;5.96;72.41
32251;BME280;41295;48.518;9.206;2022-11-20T02:40:34;96727.03;;;6.00;72.12
32251;BME280;41295;48.518;9.206;2022-11-20T02:42:36;96726.09;;;6.02;72.36
32251;BME280;41295;48.518;9.206;2022-11-20T02:44:39;96714.88;;;6.04;72.03
32251;BME280;41295;48.518;9.206;2022-11-20T02:46:42;96719.88;;;6.10;71.76
32251;BME280;41295;48.518;9.206;2022-11-20T02:48:44;96716.13;;;6.20;71.51
32251;BME280;41295;48.518;9.206;2022-11-20T02:50:47;96710.78;;;6.27;71.19
32251;BME280;41295;48.518;9.206;2022-11-20T02:52:49;96713.06;;;6.37;70.67
32251;BME280;41295;48.518;9.206;2022-11-20T02:54:52;96705.25;;;6.39;70.33
32251;BME280;41295;48.518;9.206;2022-11-20T02:56:56;96700.78;;;6.44;70.41
32251;BME280;41295;48.518;9.206;2022-11-20T02:58:59;96706.22;;;6.35;70.81
32251;BME280;41295;48.518;9.206;2022-11-20T03:01:01;96708.19;;;6.27;70.84
32251;BME280;41295;48.518;9.206;2022-11-20T03:03:04;96709.34;;;6.46;70.11
32251;BME280;41295;48.518;9.206;2022-11-20T03:05:07;96707.50;;;6.50;69.64
32251;BME280;41295;48.518;9.206;2022-11-20T03:07:10;96717.13;;;6.46;69.35
32251;BME280;41295;48.518;9.206;2022-11-20T03:09:12;96708.53;;;6.44;69.52
32251;BME280;41295;48.518;9.206;2022-11-20T03:11:15;96699.88;;;6.74;67.72
32251;BME280;41295;48.518;9.206;2022-11-20T03:13:19;96701.06;;;6.64;68.35
32251;BME280;41295;48.518;9.206;2022-11-20T03:15:22;96710.75;;;6.57;68.55
32251;BME280;41295;48.518;9.206;2022-11-20T03:17:24;96699.22;;;6.67;68.08
32251;BME280;41295;48.518;9.206;2022-11-20T03:19:27;96698.41;;;6.65;67.94
32251;BME280;41295;48.518;9.206;2022-11-20T03:21:30;96713.34;;;6.57;67.46
32251;BME280;41295;48.518;9.206;2022-11-20T03:23:33;96707.22;;;6.59;67.80
32251;BME280;41295;48.518;9.206;2022-11-20T03:25:36;96703.91;;;6.54;68.14
32251;BME280;41295;48.518;9.206;2022-11-20T03:27:38;96712.75;;;6.48;68.36
32251;BME280;41295;48.518;9.206;2022-11-20T03:29:42;96710.72;;;6.58;67.91
32251;BME280;41295;48.518;9.206;2022-11-20T03:31:45;96699.81;;;6.76;67.22
32251;BME280;41295;48.518;9.206;2022-11-20T03:33:48;96700.03;;;6.69;67.36
32251;BME280;41295;48.518;9.206;2022-11-20T03:35:51;96695.13;;;6.60;67.62
32251;BME280;41295;48.518;9.206;2022-11-20T03:37:53;96701.28;;;6.56;67.57
32251;BME280;41295;48.518;9.206;2022-11-20T03:39:56;96703.59;;;6.65;67.25
32251;BME280;41295;48.518;9.206;2022-11-20T03:41:58;96706.00;;;6.71;67.27
32251;BME280;41295;48.518;9.206;2022-11-20T03:44:03;96711.31;;;6.67;67.31
32251;BME280;41295;48.518;9.206;2022-11-20T03:46:07;96708.81;;;6.64;67.62
32251;BME280;41295;48.518;9.206;2022-11-20T03:48:10;96707.03;;;6.66;67.50
32251;BME280;41295;48.518;9.206;2022-11-20T03:50:13;96705.63;;;6.84;66.66
32251;BME280;41295;48.518;9.206;2022-11-20T03:52:16;96711.69;;;6.83;66.90
32251;BME280;41295;48.518;9.206;2022-11-20T03:54:19;96708.66;;;6.68;67.22
32251;BME280;41295;48.518;9.206;2022-11-20T03:56:23;96723.13;;;6.76;67.26
32251;BME280;41295;48.518;9.206;2022-11-20T03:58:26;96712.66;;;6.80;66.82
32251;BME280;41295;48.518;9.206;2022-11-20T04:00:29;96709.28;;;6.77;66.76
32251;BME280;41295;48.518;9.206;2022-11-20T04:02:33;96708.53;;;6.73;67.50
32251;BME280;41295;48.518;9.206;2022-11-20T04:04:36;96715.47;;;6.72;67.59
32251;BME280;41295;48.518;9.206;2022-11-20T04:06:38;96712.19;;;6.94;66.35
32251;BME280;41295;48.518;9.206;2022-11-20T04:08:42;96719.00;;;6.97;66.05
32251;BME280;41295;48.518;9.206;2022-11-20T04:10:50;96716.47;;;6.95;66.06
32251;BME280;41295;48.518;9.206;2022-11-20T04:12:52;96717.72;;;6.83;66.50
32251;BME280;41295;48.518;9.206;2022-11-20T04:14:55;96720.38;;;6.82;66.57
32251;BME280;41295;48.518;9.206;2022-11-20T04:16:57;96717.38;;;6.94;66.43
32251;BME280;41295;48.518;9.206;2022-11-20T04:19:03;96713.44;;;6.82;66.18
32251;BME280;41295;48.518;9.206;2022-11-20T04:21:06;96717.56;;;6.88;66.44
32251;BME280;41295;48.518;9.206;2022-11-20T04:23:09;96710.81;;;6.84;66.30
32251;BME280;41295;48.518;9.206;2022-11-20T04:25:11;96712.69;;;6.79;66.51
32251;BME280;41295;48.518;9.206;2022-11-20T04:27:14;96714.19;;;6.86;66.09
32251;BME280;41295;48.518;9.206;2022-11-20T04:29:17;96714.44;;;7.05;65.69
32251;BME280;41295;48.518;9.206;2022-11-20T04:31:21;96713.69;;;7.02;65.52
32251;BME280;41295;48.518;9.206;2022-11-20T04:33:24;96704.78;;;7.10;65.16
32251;BME280;41295;48.518;9.206;2022-11-20T04:35:35;96707.00;;;6.94;65.28
32251;BME280;41295;48.518;9.206;2022-11-20T04:37:38;96707.19;;;6.88;65.81
32251;BME280;41295;48.518;9.206;2022-11-20T04:39:40;96704.13;;;7.04;65.74
32251;BME280;41295;48.518;9.206;2022-11-20T04:41:43;96702.63;;;6.96;65.92
32251;BME280;41295;48.518;9.206;2022-11-20T04:43:47;96708.84;;;6.91;66.26
32251;BME280;41295;48.518;9.206;2022-11-20T04:45:50;96708.16;;;6.85;66.51
32251;BME280;41295;48.518;9.206;2022-11-20T04:47:53;96701.19;;;6.88;66.38
32251;BME280;41295;48.518;9.206;2022-11-20T04:49:55;96703.84;;;6.86;66.24
32251;BME280;41295;48.518;9.206;2022-11-20T04:51:59;96703.72;;;6.89;66.10
32251;BME280;41295;48.518;9.206;2022-11-20T04:54:02;96706.38;;;6.88;66.29
32251;BME280;41295;48.518;9.206;2022-11-20T04:56:07;96704.31;;;6.97;65.73
32251;BME280;41295;48.518;9.206;2022-11-20T04:58:10;96700.44;;;6.84;66.02
32251;BME280;41295;48.518;9.206;2022-11-20T05:00:14;96701.72;;;6.97;65.63
32251;BME280;41295;48.518;9.206;2022-11-20T05:02:17;96696.06;;;6.84;66.08
32251;BME280;41295;48.518;9.206;2022-11-20T05:04:19;96704.97;;;7.04;65.37
32251;BME280;41295;48.518;9.206;2022-11-20T05:06:24;96711.94;;;7.02;65.46
32251;BME280;41295;48.518;9.206;2022-11-20T05:08:29;96697.09;;;7.07;64.72
32251;BME280;41295;48.518;9.206;2022-11-20T05:10:31;96704.09;;;7.05;64.71
32251;BME280;41295;48.518;9.206;2022-11-20T05:12:34;96699.06;;;6.99;65.02
32251;BME280;41295;48.518;9.206;2022-11-20T05:14:38;96700.22;;;6.90;65.25
32251;BME280;41295;48.518;9.206;2022-11-20T05:16:40;96700.34;;;6.87;65.61
32251;BME280;41295;48.518;9.206;2022-11-20T05:18:43;96698.97;;;7.02;65.03
32251;BME280;41295;48.518;9.206;2022-11-20T05:20:46;96695.56;;;7.02;64.72
32251;BME280;41295;48.518;9.206;2022-11-20T05:22:48;96696.44;;;7.01;64.73
32251;BME280;41295;48.518;9.206;2022-11-20T05:24:52;96696.75;;;6.91;65.35
32251;BME280;41295;48.518;9.206;2022-11-20T05:26:55;96692.28;;;6.96;65.27
32251;BME280;41295;48.518;9.206;2022-11-20T05:28:57;96698.38;;;6.94;65.10
32251;BME280;41295;48.518;9.206;2022-11-20T05:31:07;96689.63;;;6.98;65.28
32251;BME280;41295;48.518;9.206;2022-11-20T05:33:10;96693.94;;;6.97;65.27
32251;BME280;41295;48.518;9.206;2022-11-20T05:35:13;96694.09;;;6.93;65.14
32251;BME280;41295;48.518;9.206;2022-11-20T05:37:15;96695.50;;;7.03;64.72
32251;BME280;41295;48.518;9.206;2022-11-20T05:39:18;96696.53;;;6.97;65.14
32251;BME280;41295;48.518;9.206;2022-11-20T05:41:22;96693.31;;;6.91;64.87
32251;BME280;41295;48.518;9.206;2022-11-20T05:43:25;96687.53;;;6.82;65.26
32251;BME280;41295;48.518;9.206;2022-11-20T05:45:27;96683.03;;;6.88;65.03
32251;BME280;41295;48.518;9.206;2022-11-20T05:47:32;96683.81;;;6.90;65.14
32251;BME280;41295;48.518;9.206;2022-11-20T05:49:35;96685.72;;;6.84;65.12
32251;BME280;41295;48.518;9.206;2022-11-20T05:51:38;96686.47;;;6.88;64.60
32251;BME280;41295;48.518;9.206;2022-11-20T05:53:40;96679.59;;;7.14;63.27
32251;BME280;41295;48.518;9.206;2022-11-20T05:55:56;96692.69;;;7.09;63.64
32251;BME280;41295;48.518;9.206;2022-11-20T05:58:00;96688.34;;;6.83;64.35
32251;BME280;41295;48.518;9.206;2022-11-20T06:00:03;96682.88;;;6.92;64.20
32251;BME280;41295;48.518;9.206;2022-11-20T06:02:06;96693.78;;;7.02;64.15
32251;BME280;41295;48.518;9.206;2022-11-20T06:04:08;96689.00;;;6.90;64.29
32251;BME280;41295;48.518;9.206;2022-11-20T06:06:12;96688.94;;;6.93;64.52
32251;BME280;41295;48.518;9.206;2022-11-20T06:08:15;96694.09;;;6.93;63.75
32251;BME280;41295;48.518;9.206;2022-11-20T06:10:17;96689.25;;;6.82;64.56
32251;BME280;41295;48.518;9.206;2022-11-20T06:12:20;96680.00;;;6.74;64.93
32251;BME280;41295;48.518;9.206;2022-11-20T06:14:24;96686.81;;;7.04;64.11
32251;BME280;41295;48.518;9.206;2022-11-20T06:16:26;96684.88;;;6.84;64.22
32251;BME280;41295;48.518;9.206;2022-11-20T06:18:29;96686.69;;;6.82;64.58
32251;BME280;41295;48.518;9.206;2022-11-20T06:20:32;96680.22;;;6.67;65.07
32251;BME280;41295;48.518;9.206;2022-11-20T06:22:42;96688.88;;;6.94;64.30
32251;BME280;41295;48.518;9.206;2022-11-20T06:24:45;96679.34;;;6.95;64.33
32251;BME280;41295;48.518;9.206;2022-11-20T06:26:51;96683.69;;;6.94;64.05
32251;BME280;41295;48.518;9.206;2022-11-20T06:28:54;96682.84;;;6.94;63.88
32251;BME280;41295;48.518;9.206;2022-11-20T06:30:58;96688.47;;;6.80;64.33
32251;BME280;41295;48.518;9.206;2022-11-20T06:33:01;96683.88;;;6.88;63.91
32251;BME280;41295;48.518;9.206;2022-11-20T06:35:04;96683.34;;;6.78;64.21
32251;BME280;41295;48.518;9.206;2022-11-20T06:37:07;96684.78;;;6.87;64.09
32251;BME280;41295;48.518;9.206;2022-11-20T06:39:10;96681.78;;;6.72;64.49
32251;BME280;41295;48.518;9.206;2022-11-20T06:41:15;96687.06;;;6.69;63.87
32251;BME280;41295;48.518;9.206;2022-11-20T06:43:18;96688.16;;;6.62;64.58
32251;BME280;41295;48.518;9.206;2022-11-20T06:45:20;96702.59;;;6.69;64.75
32251;BME280;41295;48.518;9.206;2022-11-20T06:47:24;96695.72;;;6.68;64.22
32251;BME280;41295;48.518;9.206;2022-11-20T06:49:27;96697.81;;;6.57;64.61
32251;BME280;41295;48.518;9.206;2022-11-20T06:51:30;96701.09;;;6.62;64.91
32251;BME280;41295;48.518;9.206;2022-11-20T06:53:32;96697.03;;;6.82;63.62
32251;BME280;41295;48.518;9.206;2022-11-20T06:55:36;96701.84;;;6.66;64.39
32251;BME280;41295;48.518;9.206;2022-11-20T06:57:38;96693.69;;;6.78;63.91
32251;BME280;41295;48.518;9.206;2022-11-20T06:59:41;96695.38;;;6.79;64.11
32251;BME280;41295;48.518;9.206;2022-11-20T07:01:44;96701.38;;;6.81;64.04
32251;BME280;41295;48.518;9.206;2022-11-20T07:03:49;96708.13;;;6.58;64.79
32251;BME280;41295;48.518;9.206;2022-11-20T07:05:55;96706.19;;;6.65;64.88
32251;BME280;41295;48.518;9.206;2022-11-20T07:07:58;96694.31;;;6.58;64.87
32251;BME280;41295;48.518;9.206;2022-11-20T07:10:01;96708.81;;;6.64;65.29
32251;BME280;41295;48.518;9.206;2022-11-20T07:12:04;96702.75;;;6.65;65.13
32251;BME280;41295;48.518;9.206;2022-11-20T07:14:07;96702.19;;;6.55;65.29
32251;BME280;41295;48.518;9.206;2022-11-20T07:16:10;96703.25;;;6.76;64.87
32251;BME280;41295;48.518;9.206;2022-11-20T07:18:12;96706.38;;;6.59;65.18
32251;BME280;41295;48.518;9.206;2022-11-20T07:20:16;96707.97;;;6.63;65.33
32251;BME280;41295;48.518;9.206;2022-11-20T07:22:19;96712.22;;;6.66;65.19
32251;BME280;41295;48.518;9.206;2022-11-20T07:24:23;96712.31;;;6.63;65.58
32251;BME280;41295;48.518;9.206;2022-11-20T07:26:25;96710.84;;;6.82;65.06
32251;BME280;41295;48.518;9.206;2022-11-20T07:28:28;96709.34;;;6.75;65.12
32251;BME280;41295;48.518;9.206;2022-11-20T07:30:30;96712.44;;;6.86;65.31
32251;BME280;41295;48.518;9.206;2022-11-20T07:32:33;96718.41;;;6.89;65.18
32251;BME280;41295;48.518;9.206;2022-11-20T07:34:36;96715.19;;;6.82;65.13
32251;BME280;41295;48.518;9.206;2022-11-20T07:36:40;96716.97;;;6.80;65.63
32251;BME280;41295;48.518;9.206;2022-11-20T07:38:43;96722.47;;;6.97;65.36
32251;BME280;41295;48.518;9.206;2022-11-20T07:40:45;96721.47;;;7.02;64.94
32251;BME280;41295;48.518;9.206;2022-11-20T07:42:48;96720.16;;;6.88;64.86
32251;BME280;41295;48.518;9.206;2022-11-20T07:44:51;96724.84;;;6.77;65.85
32251;BME280;41295;48.518;9.206;2022-11-20T07:46:54;96721.44;;;6.74;65.78
32251;BME280;41295;48.518;9.206;2022-11-20T07:48:56;96722.91;;;6.83;65.74
32251;BME280;41295;48.518;9.206;2022-11-20T07:50:59;96726.16;;;6.90;65.56
32251;BME280;41295;48.518;9.206;2022-11-20T07:53:04;96730.47;;;6.90;65.66
32251;BME280;41295;48.518;9.206;2022-11-20T07:55:08;96717.56;;;6.88;65.70
32251;BME280;41295;48.518;9.206;2022-11-20T07:57:11;96725.56;;;7.09;65.28
32251;BME280;41295;48.518;9.206;2022-11-20T07:59:14;96717.91;;;7.04;65.52
32251;BME280;41295;48.518;9.206;2022-11-20T08:01:16;96718.66;;;7.08;65.20
32251;BME280;41295;48.518;9.206;2022-11-20T08:03:19;96723.56;;;6.90;66.08
32251;BME280;41295;48.518;9.206;2022-11-20T08:05:26;96721.66;;;6.95;66.12
32251;BME280;41295;48.518;9.206;2022-11-20T08:07:28;96716.88;;;7.10;65.79
32251;BME280;41295;48.518;9.206;2022-11-20T08:09:32;96723.50;;;6.92;65.86
32251;BME280;41295;48.518;9.206;2022-11-20T08:11:35;96721.81;;;6.91;66.19
32251;BME280;41295;48.518;9.206;2022-11-20T08:13:56;96727.00;;;6.91;66.22
32251;BME280;41295;48.518;9.206;2022-11-20T08:16:14;96733.34;;;7.09;65.78
32251;BME280;41295;48.518;9.206;2022-11-20T08:18:17;96728.63;;;7.20;65.13
32251;BME280;41295;48.518;9.206;2022-11-20T08:20:35;96719.69;;;7.04;65.47
32251;BME280;41295;48.518;9.206;2022-11-20T08:22:37;96729.34;;;6.98;66.06
32251;BME280;41295;48.518;9.206;2022-11-20T08:24:41;96738.47;;;7.10;65.63
32251;BME280;41295;48.518;9.206;2022-11-20T08:26:44;96734.47;;;7.27;64.93
32251;BME280;41295;48.518;9.206;2022-11-20T08:28:47;96739.34;;;7.11;65.31
32251;BME280;41295;48.518;9.206;2022-11-20T08:30:49;96741.66;;;7.19;65.28
32251;BME280;41295;48.518;9.206;2022-11-20T08:32:52;96744.91;;;7.26;65.29
32251;BME280;41295;48.518;9.206;2022-11-20T08:34:55;96746.00;;;7.18;65.83
32251;BME280;41295;48.518;9.206;2022-11-20T08:36:58;96751.50;;;7.09;65.91
32251;BME280;41295;48.518;9.206;2022-11-20T08:39:00;96749.88;;;7.05;66.15
32251;BME280;41295;48.518;9.206;2022-11-20T08:41:05;96749.91;;;7.32;65.04
32251;BME280;41295;48.518;9.206;2022-11-20T08:43:27;96751.75;;;7.28;65.25
32251;BME280;41295;48.518;9.206;2022-11-20T08:45:29;96752.78;;;7.22;65.71
32251;BME280;41295;48.518;9.206;2022-11-20T08:47:35;96759.91;;;7.16;65.96
32251;BME280;41295;48.518;9.206;2022-11-20T08:49:38;96760.50;;;6.97;66.25
32251;BME280;41295;48.518;9.206;2022-11-20T08:51:41;96766.34;;;7.04;66.39
32251;BME280;41295;48.518;9.206;2022-11-20T08:53:44;96763.66;;;7.07;66.02
32251;BME280;41295;48.518;9.206;2022-11-20T08:55:47;96766.84;;;7.15;65.75
32251;BME280;41295;48.518;9.206;2022-11-20T08:57:51;96764.34;;;7.12;65.95
32251;BME280;41295;48.518;9.206;2022-11-20T08:59:53;96768.16;;;7.29;65.67
32251;BME280;41295;48.518;9.206;2022-11-20T09:02:07;96772.31;;;7.33;65.39
32251;BME280;41295;48.518;9.206;2022-11-20T09:04:10;96764.94;;;7.20;65.76
32251;BME280;41295;48.518;9.206;2022-11-20T09:06:13;96760.78;;;7.16;66.30
32251;BME280;41295;48.518;9.206;2022-11-20T09:08:16;96763.84;;;7.28;65.93
32251;BME280;41295;48.518;9.206;2022-11-20T09:10:19;96764.75;;;7.27;66.48
32251;BME280;41295;48.518;9.206;2022-11-20T09:12:25;96764.44;;;7.36;66.56
32251;BME280;41295;48.518;9.206;2022-11-20T09:14:29;96770.44;;;7.38;66.40
32251;BME280;41295;48.518;9.206;2022-11-20T09:16:32;96775.66;;;7.37;66.16
32251;BME280;41295;48.518;9.206;2022-11-20T09:18:35;96766.31;;;7.32;66.43
32251;BME280;41295;48.518;9.206;2022-11-20T09:20:38;96770.28;;;7.43;66.35
32251;BME280;41295;48.518;9.206;2022-11-20T09:22:41;96768.50;;;7.45;65.66
32251;BME280;41295;48.518;9.206;2022-11-20T09:24:44;96768.34;;;7.50;66.37
32251;BME280;41295;48.518;9.206;2022-11-20T09:26:46;96771.53;;;7.31;66.55
32251;BME280;41295;48.518;9.206;2022-11-20T09:28:49;96779.22;;;7.34;66.42
32251;BME280;41295;48.518;9.206;2022-11-20T09:30:59;96770.28;;;7.43;66.24
32251;BME280;41295;48.518;9.206;2022-11-20T09:33:04;96780.31;;;7.27;66.25
32251;BME280;41295;48.518;9.206;2022-11-20T09:35:07;96773.53;;;7.22;66.67
32251;BME280;41295;48.518;9.206;2022-11-20T09:37:10;96765.91;;;7.18;66.96
32251;BME280;41295;48.518;9.206;2022-11-20T09:39:13;96778.66;;;7.24;67.42
32251;BME280;41295;48.518;9.206;2022-11-20T09:41:32;96780.78;;;7.13;68.00
32251;BME280;41295;48.518;9.206;2022-11-20T09:43:46;96783.50;;;7.35;68.03
32251;BME280;41295;48.518;9.206;2022-11-20T09:46:01;96783.91;;;7.22;68.49
32251;BME280;41295;48.518;9.206;2022-11-20T09:48:32;96786.50;;;7.22;68.62
32251;BME280;41295;48.518;9.206;2022-11-20T09:50:43;96800.84;;;7.33;68.24
32251;BME280;41295;48.518;9.206;2022-11-20T09:52:58;96798.25;;;7.33;68.22
32251;BME280;41295;48.518;9.206;2022-11-20T09:55:09;96800.63;;;7.41;68.21
32251;BME280;41295;48.518;9.206;2022-11-20T09:57:17;96791.06;;;7.43;68.04
32251;BME280;41295;48.518;9.206;2022-11-20T09:59:30;96796.38;;;7.38;68.29
32251;BME280;41295;48.518;9.206;2022-11-20T10:01:37;96802.47;;;7.37;68.46
32251;BME280;41295;48.518;9.206;2022-11-20T10:03:49;96794.16;;;7.26;68.92
32251;BME280;41295;48.518;9.206;2022-11-20T10:05:54;96794.00;;;7.32;69.57
32251;BME280;41295;48.518;9.206;2022-11-20T10:08:08;96802.09;;;7.21;69.37
32251;BME280;41295;48.518;9.206;2022-11-20T10:10:15;96791.91;;;7.15;69.93
32251;BME280;41295;48.518;9.206;2022-11-20T10:12:25;96792.03;;;7.12;70.44
32251;BME280;41295;48.518;9.206;2022-11-20T10:14:37;96793.56;;;7.17;70.48
32251;BME280;41295;48.518;9.206;2022-11-20T10:16:50;96795.41;;;7.14;70.64
32251;BME280;41295;48.518;9.206;2022-11-20T10:19:06;96789.38;;;7.13;71.00
32251;BME280;41295;48.518;9.206;2022-11-20T10:21:19;96791.19;;;7.11;71.31
32251;BME280;41295;48.518;9.206;2022-11-20T10:23:43;96787.50;;;7.45;70.30
32251;BME280;41295;48.518;9.206;2022-11-20T10:25:52;96793.72;;;7.40;70.16
32251;BME280;41295;48.518;9.206;2022-11-20T10:28:13;96789.59;;;7.34;70.82
32251;BME280;41295;48.518;9.206;2022-11-20T10:30:19;96789.44;;;7.39;70.80
32251;BME280;41295;48.518;9.206;2022-11-20T10:32:30;96792.91;;;7.39;70.99
32251;BME280;41295;48.518;9.206;2022-11-20T10:34:46;96798.38;;;7.30;71.17
32251;BME280;41295;48.518;9.206;2022-11-20T10:36:54;96787.31;;;7.25;71.41
32251;BME280;41295;48.518;9.206;2022-11-20T10:39:01;96795.88;;;7.27;71.73
32251;BME280;41295;48.518;9.206;2022-11-20T10:41:06;96785.47;;;7.55;70.79
32251;BME280;41295;48.518;9.206;2022-11-20T10:43:34;96792.69;;;7.45;70.84
32251;BME280;41295;48.518;9.206;2022-11-20T10:45:48;96792.63;;;7.47;70.99
32251;BME280;41295;48.518;9.206;2022-11-20T10:47:56;96793.66;;;7.68;69.88
32251;BME280;41295;48.518;9.206;2022-11-20T10:50:03;96793.28;;;7.54;70.79
32251;BME280;41295;48.518;9.206;2022-11-20T10:52:12;96789.50;;;7.64;70.58
32251;BME280;41295;48.518;9.206;2022-11-20T10:54:22;96783.94;;;7.75;69.88
32251;BME280;41295;48.518;9.206;2022-11-20T10:56:34;96780.22;;;7.57;70.65
32251;BME280;41295;48.518;9.206;2022-11-20T10:58:44;96775.88;;;7.83;70.34
32251;BME280;41295;48.518;9.206;2022-11-20T11:00:48;96781.69;;;7.64;70.73
32251;BME280;41295;48.518;9.206;2022-11-20T11:02:54;96766.03;;;7.67;70.68
32251;BME280;41295;48.518;9.206;2022-11-20T11:05:08;96778.94;;;7.94;70.39
32251;BME280;41295;48.518;9.206;2022-11-20T11:07:19;96767.44;;;7.76;70.52
32251;BME280;41295;48.518;9.206;2022-11-20T11:09:30;96775.25;;;7.76;70.99